Stations météo

Publicité
Kahler Asten, Allemagne (10427): Température de l'air & dewpoint: 06.12.2018 01:00:00 - 12.12.2018 01:00:00 (CET)Kahler Asten, Allemagne (10427): Température de l'air 5cm & Température de l'air -5cm: 06.12.2018 01:00:00 - 12.12.2018 01:00:00 (CET)Kahler Asten, Allemagne (10427): Température de l'air -20cm & Température de l'air -100cm: 06.12.2018 01:00:00 - 12.12.2018 01:00:00 (CET)Kahler Asten, Allemagne (10427): Vitesse du vent & gusts: 06.12.2018 01:00:00 - 12.12.2018 01:00:00 (CET)Kahler Asten, Allemagne (10427): Direction du vent: 06.12.2018 01:00:00 - 12.12.2018 01:00:00 (CET)Kahler Asten, Allemagne (10427): visibility: 06.12.2018 01:00:00 - 12.12.2018 01:00:00 (CET)Kahler Asten, Allemagne (10427): Ensoleillement: 06.12.2018 01:00:00 - 12.12.2018 01:00:00 (CET)Kahler Asten, Allemagne (10427): Quantités de précipitations: 06.12.2018 01:00:00 - 12.12.2018 01:00:00 (CET)
Date & Time tt [°C] td [°C] tt 5cm [°C] tt -5cm [°C] tt -20cm [°C] tt -100cm [°C] ff [km/h] ff [knt] fx [km/h] fx [knt] dd vv [km] sd [min] rr [mm]
12.12.2018 01:00:00 -1,5 -1,8 -0,8 0,5 1,4 5,3 23 13 37 20 N 0,5 0 0,0
12.12.2018 00:00:00 -1,2 -1,5 -0,7 0,5 1,4 5,3 23 13 36 19 N 0,1 0 0,0
11.12.2018 23:00:00 -1,1 -1,4 -0,7 0,5 1,5 5,3 24 13 39 21 NNW 0,4 0 0,0
11.12.2018 22:00:00 -1,1 -1,4 -0,5 0,5 1,5 5,3 26 14 40 22 NNW 1,3 0 0,0
11.12.2018 21:00:00 -0,9 -1,1 -0,5 0,5 1,5 5,3 23 12 44 24 NNW 0,2 0 0,2
11.12.2018 20:00:00 -0,7 -0,9 -0,5 0,5 1,5 5,3 29 16 47 25 NW 0,1 0 0,4
11.12.2018 19:00:00 -0,7 -0,9 -0,5 0,5 1,5 5,3 33 18 46 25 NW 0,4 0 0,1
11.12.2018 18:00:00 -0,9 -1,3 -0,7 0,5 1,5 5,3 24 13 39 21 NW 0,2 0 0,4
11.12.2018 17:00:00 -0,8 -1,1 -0,6 0,5 1,5 5,3 26 14 38 20 NW 1,6 0 0,2
11.12.2018 16:00:00 -0,8 -1,1 -0,5 0,5 1,5 5,3 28 15 44 24 NW 5 0 0,1
11.12.2018 15:00:00 -1,1 -1,5 -0,4 0,5 1,5 5,3 29 16 44 24 NW 3,7 0 0,3
11.12.2018 14:00:00 -1,0 -1,3 -0,3 0,6 1,5 5,3 29 15 49 27 NW 1,3 0 0,1
11.12.2018 13:00:00 -0,9 -1,1 -0,1 0,6 1,5 5,3 30 16 50 27 NW 0,9 0 0,1
11.12.2018 12:00:00 -1,0 -1,5 -0,2 0,6 1,5 5,3 35 19 52 28 NW 4,4 0 0,6
11.12.2018 11:00:00 -1,0 -1,2 -0,3 0,5 1,5 5,3 28 15 48 26 NW 0,5 0 0,3
11.12.2018 10:00:00 -1,2 -1,5 -0,8 0,5 1,5 5,3 27 15 54 29 NW 0,1 0 0,7
11.12.2018 09:00:00 -1,2 -1,6 -1,0 0,5 1,5 5,3 37 20 64 35 NW 0,8 0 0,1
11.12.2018 08:00:00 -1,3 -1,9 -1,2 0,5 1,5 5,3 39 21 63 34 NW 14 0 0,0
11.12.2018 07:00:00 -1,3 -1,9 -1,1 0,5 1,5 5,4 37 20 60 32 NW 16 0 0,0
11.12.2018 06:00:00 -1,3 -1,8 -1,1 0,5 1,6 5,4 37 20 58 31 NW 7 0 0,0
11.12.2018 05:00:00 -1,2 -1,8 -1,0 0,5 1,6 5,4 36 19 64 35 NW 10 0 0,0
11.12.2018 04:00:00 -1,2 -1,7 -1,0 0,5 1,6 5,4 40 22 64 35 NW 7 0 0,2
11.12.2018 03:00:00 -1,2 -1,6 -1,1 0,5 1,6 5,4 36 20 72 39 NW 10 0 0,0
11.12.2018 02:00:00 -1,2 -1,9 -1,1 0,5 1,6 5,4 43 23 65 35 NW 16 0 0,0
11.12.2018 01:00:00 -1,1 -1,5 -0,9 0,6 1,6 5,4 41 22 72 39 NW 2,4 0 0,0
11.12.2018 00:00:00 -1,0 -1,3 -1,0 0,6 1,6 5,4 42 23 69 37 NW 7 0 0,0
10.12.2018 23:00:00 -1,1 -1,5 -1,0 0,5 1,6 5,4 43 23 70 38 NW 12 0 1,2
10.12.2018 22:00:00 -1,2 -1,5 -1,1 0,5 1,6 5,4 38 20 68 37 NW 0,4 0 0,1
10.12.2018 21:00:00 -1,2 -1,6 -1,2 0,5 1,6 5,4 35 19 59 32 NW 2,6 0 0,5
10.12.2018 20:00:00 -1,2 -1,6 -1,1 0,5 1,6 5,4 39 21 61 33 NW 5 0 0,7
10.12.2018 19:00:00 -1,5 -2,3 -1,6 0,5 1,6 5,4 31 17 71 38 WNW 18 0 0,0
10.12.2018 18:00:00 -1,4 -2,2 -1,5 0,5 1,6 5,4 42 23 72 39 NW 14 0 0,0
10.12.2018 17:00:00 -1,2 -2,1 -1,5 0,5 1,6 5,4 35 19 72 39 WNW 18 0 0,0
10.12.2018 16:00:00 -1,3 -2,4 -1,6 0,6 1,6 5,4 37 20 65 35 WNW 24 0 0,0
10.12.2018 15:00:00 -1,1 -1,7 -1,3 0,6 1,6 5,4 33 18 61 33 WNW 12 0 0,0
10.12.2018 14:00:00 -1,2 -1,8 -1,1 0,6 1,6 5,4 39 21 70 38 WNW 13 0 1,2
10.12.2018 13:00:00 -1,0 -1,4 -1,0 0,6 1,6 5,4 33 18 64 34 WNW 1,9 0 0,3
10.12.2018 12:00:00 -0,8 -1,6 -0,7 0,6 1,6 5,4 37 20 61 33 WNW 26 0 0,0
10.12.2018 11:00:00 -1,0 -1,8 -1,0 0,5 1,6 5,4 39 21 64 35 WNW 23 0 0,3
10.12.2018 10:00:00 -1,1 -2,0 -1,2 0,5 1,6 5,4 35 19 61 33 WNW 19 0 0,0
10.12.2018 09:00:00 -1,1 -2,1 -1,3 0,4 1,6 5,4 39 21 64 35 WNW 27 0 0,0
10.12.2018 08:00:00 -1,2 -2,0 -1,4 0,4 1,6 5,4 41 22 67 36 WNW 24 0 0,3
10.12.2018 07:00:00 -1,0 -2,1 -1,1 0,4 1,6 5,4 36 19 70 38 WNW 32 0 0,0
10.12.2018 06:00:00 -0,8 -1,8 -1,0 0,4 1,7 5,4 39 21 63 34 WNW 31 0 0,0
10.12.2018 05:00:00 -0,6 -1,5 -0,8 0,4 1,7 5,4 35 19 67 36 WNW 13 0 0,1
10.12.2018 04:00:00 -0,6 -1,6 -0,8 0,4 1,7 5,4 36 19 69 37 WNW 29 0 0,0
10.12.2018 03:00:00 -0,4 -1,4 -0,6 0,4 1,7 5,4 34 19 67 36 WNW 25 0 0,0
10.12.2018 02:00:00 -0,2 -0,8 -0,3 0,4 1,7 5,4 37 20 68 37 WNW 20 0 0,0
10.12.2018 01:00:00 -0,1 -1,0 -0,3 0,4 1,8 5,4 36 19 64 35 WNW 20 0 0,0
10.12.2018 00:00:00 0,0 -0,7 -0,1 0,4 1,8 5,4 39 21 79 42 WNW 16 0 0,0
09.12.2018 23:00:00 0,1 -1,1 -0,1 0,4 1,8 5,4 47 26 77 42 NW 31 0 0,0
09.12.2018 22:00:00 0,4 0,0 0,2 0,4 1,9 5,4 43 23 75 40 NW 12 0 0,0
09.12.2018 21:00:00 0,5 0,0 0,3 0,4 2,0 5,4 48 26 80 43 NW 16 0 1,3
09.12.2018 20:00:00 0,6 0,3 0,1 0,5 2,0 5,4 40 21 72 39 NW 2,5 0 0,1
09.12.2018 19:00:00 1,4 1,2 0,9 0,5 2,1 5,4 43 23 72 39 NW 0,8 0 0,3
09.12.2018 18:00:00 1,3 1,0 0,6 0,5 2,2 5,4 37 20 72 39 WNW 4,5 0 0,3
09.12.2018 17:00:00 0,9 0,7 0,3 0,6 2,2 5,4 30 16 66 36 WNW 0,3 0 0,1
09.12.2018 16:00:00 0,4 0,2 0,0 0,6 2,3 5,4 34 19 50 27 WNW 0,3 0 0,0
09.12.2018 15:00:00 -0,1 -0,2 -0,1 0,7 2,5 5,4 28 15 44 24 W 0,2 0 0,4
09.12.2018 14:00:00 -0,4 -0,6 -0,4 0,7 2,6 5,4 26 14 45 24 W 0,8 0 3,5
09.12.2018 13:00:00 -0,2 -0,4 -0,1 1,0 2,7 5,5 29 16 47 25 WNW 0,8 0 3,0
09.12.2018 12:00:00 2,3 2,3 2,2 2,3 2,6 5,5 37 20 74 40 W 0,1 0 2,0
09.12.2018 11:00:00 2,3 2,1 2,3 2,3 2,6 5,5 47 26 73 39 W 0,2 0 0,9
09.12.2018 10:00:00 2,3 2,1 2,2 1,9 2,6 5,5 45 25 79 42 W 1,1 0 1,4
09.12.2018 09:00:00 1,9 1,7 1,7 1,6 2,7 5,5 45 24 77 42 W 0,3 0 2,1
09.12.2018 08:00:00 1,7 1,5 1,3 1,3 2,8 5,6 49 27 72 39 W 0,2 0 3,9
09.12.2018 07:00:00 1,0 0,9 0,2 1,9 2,9 5,6 44 24 74 40 W 0,4 0 1,5
09.12.2018 06:00:00 1,9 1,7 1,6 2,1 3,0 5,6 36 19 85 46 W 0,2 0 0,4
09.12.2018 05:00:00 2,0 1,8 1,9 2,0 3,1 5,6 45 24 73 40 W 2,3 0 0,0
09.12.2018 04:00:00 1,6 1,3 1,2 1,9 3,3 5,6 48 26 87 47 W 0,7 0 5,1
09.12.2018 03:00:00 2,6 2,3 2,3 3,0 3,3 5,6 48 26 91 49 W 0,5 0 2,6
09.12.2018 02:00:00 3,5 3,2 3,4 3,4 3,2 5,6 41 22 85 46 W 0,3 0 0,1
09.12.2018 01:00:00 4,0 3,6 3,9 3,5 3,1 5,6 53 29 82 44 WSW 12 0 0,4
09.12.2018 00:00:00 4,2 4,0 4,0 3,4 3,0 5,6 45 25 79 42 WSW 4,4 0 1,8
08.12.2018 23:00:00 3,8 3,4 3,7 3,0 2,9 5,6 49 27 78 42 SW 11 0 3,0
08.12.2018 22:00:00 3,3 3,1 3,2 2,8 2,8 5,7 40 22 63 34 SW 1,2 0 1,4
08.12.2018 21:00:00 3,3 3,2 3,2 2,7 2,7 5,7 45 24 73 40 SW 0,5 0 0,5
08.12.2018 20:00:00 2,9 2,7 2,8 2,5 2,7 5,7 37 20 64 34 SW 0,2 0 1,6
08.12.2018 19:00:00 2,6 2,5 2,6 2,4 2,6 5,7 35 19 67 36 WSW 0,8 0 0,0
08.12.2018 18:00:00 2,5 2,3 2,4 2,3 2,5 5,6 45 24 77 42 W 6 0 0,4
08.12.2018 17:00:00 2,4 2,2 2,1 2,1 2,5 5,6 47 26 82 45 W 0,6 0 0,1
08.12.2018 16:00:00 2,3 2,2 2,1 2,0 2,4 5,7 44 24 79 43 W 0,4 0 1,0
08.12.2018 15:00:00 2,2 2,0 2,0 1,8 2,4 5,7 46 25 83 45 W 0,4 0 0,9
08.12.2018 14:00:00 2,1 2,0 1,8 1,4 2,3 5,7 45 25 73 40 W 0,3 0 1,3
08.12.2018 13:00:00 1,2 1,0 0,9 1,0 2,5 5,7 34 19 73 40 WSW 0,5 0 1,8
08.12.2018 12:00:00 1,2 1,0 1,1 1,2 2,6 5,7 36 20 70 38 WSW 0,6 0 0,6
08.12.2018 11:00:00 0,4 0,2 0,0 0,8 2,7 5,7 37 20 66 36 WSW 0,2 0 0,8
08.12.2018 10:00:00 0,8 0,6 0,5 1,0 2,8 5,7 41 22 63 34 WSW 0,2 0 0,4
08.12.2018 09:00:00 0,4 0,2 0,2 0,9 3,0 5,7 41 22 68 37 SW 0,5 0 0,3
08.12.2018 08:00:00 0,5 0,4 0,0 0,8 3,1 5,7 38 21 64 35 WSW 0,3 0 0,6
08.12.2018 07:00:00 0,1 -0,1 0,0 0,9 3,2 5,7 37 20 69 38 WSW 0,4 0 0,7
08.12.2018 06:00:00 0,4 0,1 0,2 1,0 3,3 5,7 41 22 67 36 WSW 1,1 0 0,2
08.12.2018 05:00:00 0,2 0,0 0,1 1,1 3,5 5,7 41 22 73 39 WSW 7 0 0,0
08.12.2018 04:00:00 0,2 -0,1 0,0 1,0 3,7 5,7 40 22 74 40 WSW 1,5 0 0,7
08.12.2018 03:00:00 0,4 0,1 0,3 1,4 3,9 5,7 40 22 68 37 WSW 8 0 0,0
08.12.2018 02:00:00 0,5 0,2 0,4 1,4 4,1 5,7 39 21 69 38 WSW 1,2 0 0,2
08.12.2018 01:00:00 0,1 -0,1 0,0 1,5 4,4 5,6 35 19 66 35 W 0,2 0 0,5
08.12.2018 00:00:00 0,5 0,3 0,2 1,9 4,7 5,6 42 23 74 40 W 1,0 0 1,3
07.12.2018 23:00:00 1,2 1,1 1,0 2,7 5,0 5,6 38 20 60 32 W 0,1 0 0,2
07.12.2018 22:00:00 0,5 0,1 0,5 3,0 5,1 5,5 39 21 86 47 W 18 0 1,9
07.12.2018 21:00:00 3,7 3,5 3,7 4,7 5,2 5,6 49 27 78 42 W 1,2 0 3,8
07.12.2018 20:00:00 4,8 4,6 4,7 5,1 5,3 5,8 41 22 70 38 SW 2,4 0 1,9
07.12.2018 19:00:00 4,8 4,6 4,7 5,2 5,4 5,8 41 22 73 40 SSW 1,0 0 0,8
07.12.2018 18:00:00 4,8 4,6 4,7 5,3 5,4 5,8 50 27 85 46 SW 1,8 0 0,1
07.12.2018 17:00:00 5,1 5,0 5,0 5,6 5,4 5,8 46 25 71 39 SW 2,3 0 0,1
07.12.2018 16:00:00 5,5 5,4 5,5 5,8 5,4 5,8 36 19 63 34 SSW 0,1 0 0,0
07.12.2018 15:00:00 5,7 5,6 5,7 6,0 5,4 5,8 37 20 62 34 SSW 0,1 0 0,1
07.12.2018 14:00:00 5,9 5,9 5,9 6,1 5,4 5,8 39 21 64 35 SW 0,2 0 0,2
07.12.2018 13:00:00 6,0 5,9 6,0 6,1 5,3 5,8 45 25 67 36 SW 0,2 0 0,2
07.12.2018 12:00:00 6,2 6,1 6,2 6,1 5,3 5,8 40 21 57 31 SW 0,3 0 0,1
07.12.2018 11:00:00 6,3 6,3 6,2 6,1 5,3 5,8 30 16 58 31 SW 0,2 0 0,0
07.12.2018 10:00:00 6,3 6,3 6,2 6,0 5,2 5,8 39 21 54 29 SW 0,2 0 0,0
07.12.2018 09:00:00 6,4 6,4 6,3 6,0 5,2 5,8 33 18 51 28 SW 0,2 0 0,2
07.12.2018 08:00:00 6,5 6,5 6,3 6,0 5,1 5,8 38 20 58 31 WSW 0,2 0 0,4
07.12.2018 07:00:00 6,6 6,6 6,5 6,1 5,1 5,8 35 19 56 30 WSW 0,2 0 0,0
07.12.2018 06:00:00 6,7 6,7 6,6 6,1 5,0 5,8 39 21 56 30 WSW 0,2 0 0,5
07.12.2018 05:00:00 6,7 6,7 6,5 6,0 5,0 5,8 35 19 55 30 WSW 0,2 0 0,0
07.12.2018 04:00:00 6,6 6,5 6,5 6,1 4,9 5,8 37 20 57 31 WSW 0,2 0 0,2
07.12.2018 03:00:00 6,9 6,9 6,8 6,0 4,8 5,8 33 18 59 32 WSW 0,2 0 0,0
07.12.2018 02:00:00 6,8 6,8 6,6 6,0 4,7 5,8 44 24 67 36 WSW 0,1 0 0,2
07.12.2018 01:00:00 7,0 7,0 6,8 6,0 4,6 5,8 41 22 64 34 WSW 0,1 0 0,3
07.12.2018 00:00:00 7,0 6,9 6,8 5,9 4,5 5,8 35 19 55 30 WSW 0,1 0 0,2
06.12.2018 23:00:00 6,9 6,8 6,7 5,7 4,4 5,8 32 18 51 28 WSW 0,1 0 0,1
06.12.2018 22:00:00 6,8 6,8 6,6 5,6 4,3 5,8 33 18 54 29 WSW 0,1 0 0,0
06.12.2018 21:00:00 6,6 6,5 6,4 5,4 4,2 5,8 30 16 49 26 WSW 0,1 0 0,1
06.12.2018 20:00:00 6,3 6,3 6,1 5,3 4,1 5,8 28 15 51 27 WSW 0,1 0 0,0
06.12.2018 19:00:00 6,1 6,0 6,0 5,2 4,0 5,9 32 18 53 29 WSW 0,4 0 0,0
06.12.2018 18:00:00 6,1 6,1 5,9 5,2 3,8 5,9 34 19 58 31 WSW 0,4 0 0,0
06.12.2018 17:00:00 6,3 6,3 6,2 5,1 3,7 5,9 33 18 56 30 WSW 0,1 0 0,0
06.12.2018 16:00:00 6,3 6,3 6,1 5,0 3,5 5,9 40 22 57 31 W 0,1 0 0,3
06.12.2018 15:00:00 6,1 6,1 6,0 4,9 3,3 5,9 30 16 54 29 WSW 0,1 0 0,2
06.12.2018 14:00:00 6,1 6,1 6,0 4,7 3,1 5,9 31 17 46 25 WSW 0,1 0 0,1
06.12.2018 13:00:00 5,7 5,6 5,6 4,2 2,9 5,9 23 12 36 19 WSW 0,1 0 0,1
06.12.2018 12:00:00 5,1 5,1 5,2 3,9 2,7 5,9 20 11 34 18 WSW 0,1 0 0,1
06.12.2018 11:00:00 4,6 4,6 4,7 3,5 2,5 5,9 19 11 29 16 WSW 0,1 0 0,0
06.12.2018 10:00:00 4,0 3,9 4,0 2,8 2,4 5,9 23 12 32 17 WSW 0,1 0 0,0
06.12.2018 09:00:00 3,2 3,1 3,2 2,2 2,3 5,9 19 11 29 16 WSW 0,1 0 0,1
06.12.2018 08:00:00 2,4 2,3 2,3 1,9 2,3 5,9 24 13 29 15 SW 0,1 0 0,2
06.12.2018 07:00:00 1,7 1,6 1,6 1,7 2,2 5,9 21 11 31 17 SW 0,1 0 0,1
06.12.2018 06:00:00 1,6 1,5 1,5 1,6 2,1 5,9 23 13 35 19 SSW 0,1 0 0,0
06.12.2018 05:00:00 1,8 1,7 1,7 1,5 2,1 5,9 26 14 39 21 SSW 0,1 0 0,0
06.12.2018 04:00:00 1,5 1,4 1,4 1,3 2,0 5,9 21 11 37 20 SSW 0,1 0 0,2
06.12.2018 03:00:00 1,9 1,8 1,8 1,0 2,0 5,9 24 13 36 19 S 0,1 0 0,2
06.12.2018 02:00:00 1,5 1,3 1,4 0,6 1,9 5,9 24 13 40 22 SSW 0,1 0 0,1
06.12.2018 01:00:00 1,5 1,4 1,4 0,4 1,9 6,0 29 15 41 22 SSW 0,1 0 0,0

tt = Température de l'air
td = dewpoint
tt 5cm = Température de l'air 5cm
tt -5cm = Température de l'air -5cm
tt -20cm = Température de l'air -20cm
tt -100cm = Température de l'air -100cm
ff = Vitesse du vent
fx = gusts
dd = Direction du vent
vv = visibility
sd = Ensoleillement
rr = Quantités de précipitations

stations d'obs. à proximité